Time;durP1;ratioP1;P1;durP2;ratioP2;P2;SDS_P1;SDS_P2;PMS_P1;PMS_P2;Temp;Humidity;BMP_temperature;BMP_pressure;BME280_temperature;BME280_humidity;BME280_pressure;Samples;Min_cycle;Max_cycle;Signal;HPM_P1;HPM_P2
2021/08/07 00:02:22;;;;;;;5.85;3.90;;;;;;;22.53;55.53;99613.88;5022173;28;20033;-68
2021/08/07 00:04:48;;;;;;;8.45;4.43;;;;;;;22.48;56.02;99627.16;5020500;28;20044;-69
2021/08/07 00:07:13;;;;;;;6.90;4.30;;;;;;;22.17;56.82;99638.41;5031562;28;20511;-69
2021/08/07 00:09:39;;;;;;;6.43;4.90;;;;;;;21.90;57.08;99611.00;5032897;28;20026;-69
2021/08/07 00:12:05;;;;;;;6.50;4.03;;;;;;;21.90;58.02;99634.66;5032524;28;20018;-68
2021/08/07 00:14:30;;;;;;;14.30;4.75;;;;;;;22.07;57.60;99640.38;5032880;28;20104;-69
2021/08/07 00:16:55;;;;;;;8.48;4.22;;;;;;;21.75;57.13;99578.09;5032171;28;20431;-68
2021/08/07 00:19:21;;;;;;;9.75;4.22;;;;;;;22.12;57.46;99637.66;5032364;28;20108;-68
2021/08/07 00:21:48;;;;;;;7.32;4.45;;;;;;;22.13;57.02;99634.97;5032576;28;20025;-68
2021/08/07 00:24:14;;;;;;;7.93;5.10;;;;;;;21.97;57.41;99631.00;5032891;28;20036;-69
2021/08/07 00:26:40;;;;;;;10.73;5.03;;;;;;;21.97;57.88;99633.63;5032217;28;20033;-67
2021/08/07 00:29:05;;;;;;;9.77;5.90;;;;;;;21.67;58.67;99620.28;5022387;28;20057;-68
2021/08/07 00:31:31;;;;;;;7.32;5.43;;;;;;;21.70;58.86;99635.13;5012624;28;20132;-69
2021/08/07 00:33:56;;;;;;;8.35;5.70;;;;;;;21.72;58.93;99635.94;5012775;28;20482;-69
2021/08/07 00:36:22;;;;;;;7.18;5.65;;;;;;;21.77;58.64;99628.81;5012536;28;20447;-67
2021/08/07 00:38:47;;;;;;;8.13;6.25;;;;;;;21.82;58.97;99637.47;5012633;28;20034;-69
2021/08/07 00:41:13;;;;;;;11.55;5.70;;;;;;;21.89;58.81;99643.44;5011601;28;20464;-68
2021/08/07 00:43:38;;;;;;;6.40;5.43;;;;;;;21.91;58.75;99633.78;5012571;28;20025;-69
2021/08/07 00:46:03;;;;;;;7.85;5.70;;;;;;;21.63;59.10;99610.72;5019990;28;20026;-67
2021/08/07 00:48:29;;;;;;;8.25;6.25;;;;;;;21.90;58.80;99645.19;5021280;28;20098;-69
2021/08/07 00:50:55;;;;;;;5.90;5.28;;;;;;;22.01;58.38;99637.91;5026995;28;20033;-68
2021/08/07 00:53:22;;;;;;;9.52;5.50;;;;;;;22.12;58.30;99641.13;5030991;28;20029;-67
2021/08/07 00:55:47;;;;;;;8.10;5.85;;;;;;;22.23;57.75;99640.00;5031595;28;20032;-68
2021/08/07 00:58:13;;;;;;;8.30;5.85;;;;;;;22.35;57.30;99637.06;5032050;28;20033;-68
2021/08/07 01:00:39;;;;;;;9.35;5.75;;;;;;;22.30;57.53;99634.53;5031727;28;20030;-68
2021/08/07 01:03:12;;;;;;;8.35;5.88;;;;;;;22.16;57.19;99636.66;5031866;28;20026;-68
2021/08/07 01:05:38;;;;;;;9.18;6.05;;;;;;;22.29;56.79;99637.22;5014713;28;20026;-68
2021/08/07 01:08:17;;;;;;;9.30;5.60;;;;;;;22.36;56.13;99633.53;5011942;28;20026;-68
2021/08/07 01:11:33;;;;;;;9.40;4.82;;;;;;;22.43;54.50;99645.69;5010875;28;20045;-69
2021/08/07 01:14:02;;;;;;;7.53;5.10;;;;;;;22.05;55.19;99652.69;4970573;28;20097;-69
2021/08/07 01:16:30;;;;;;;8.90;5.35;;;;;;;21.73;56.63;99650.81;4970206;28;20498;-69
2021/08/07 01:18:59;;;;;;;9.25;5.53;;;;;;;21.70;57.48;99651.72;4970443;28;20101;-69
2021/08/07 01:21:40;;;;;;;8.00;5.25;;;;;;;21.62;57.02;99622.13;4970271;28;20027;-66
2021/08/07 01:24:14;;;;;;;6.45;5.13;;;;;;;21.98;56.73;99648.47;4970761;28;20031;-68
2021/08/07 01:26:55;;;;;;;9.60;4.80;;;;;;;22.14;56.06;99646.34;4970413;28;20034;-68
2021/08/07 01:29:22;;;;;;;6.88;5.07;;;;;;;22.14;56.41;99644.59;4970513;28;20034;-68
2021/08/07 01:31:50;;;;;;;7.60;4.90;;;;;;;22.10;55.12;99634.19;4976940;28;20575;-68
2021/08/07 01:34:17;;;;;;;6.35;4.60;;;;;;;22.22;54.99;99649.66;4989448;28;20054;-69
2021/08/07 01:36:44;;;;;;;9.13;5.45;;;;;;;22.07;54.65;99650.91;4989642;28;20056;-68
2021/08/07 01:39:09;;;;;;;7.63;4.32;;;;;;;22.22;54.28;99652.28;4989785;28;20118;-66
2021/08/07 01:41:36;;;;;;;5.25;4.20;;;;;;;22.11;53.58;99618.38;4989494;28;20038;-68
2021/08/07 01:44:02;;;;;;;7.18;5.28;;;;;;;22.36;53.80;99649.31;5001786;28;20496;-68
2021/08/07 01:46:36;;;;;;;8.30;4.80;;;;;;;22.29;54.09;99659.16;5031090;28;20032;-69
2021/08/07 01:49:11;;;;;;;6.22;4.18;;;;;;;22.17;54.57;99656.81;5029731;28;20475;-65
2021/08/07 01:51:57;;;;;;;8.07;5.20;;;;;;;21.81;56.01;99676.00;5022109;28;20034;-68
2021/08/07 01:54:30;;;;;;;8.85;6.10;;;;;;;21.72;55.87;99654.31;5011676;28;20026;-68
2021/08/07 01:56:59;;;;;;;6.43;5.30;;;;;;;21.77;55.54;99670.84;5011412;28;20030;-71
2021/08/07 01:59:25;;;;;;;8.55;5.07;;;;;;;21.83;55.00;99677.75;5011623;28;20100;-65
2021/08/07 02:01:51;;;;;;;5.90;4.78;;;;;;;22.02;53.61;99667.66;5011327;28;20030;-66
2021/08/07 02:04:20;;;;;;;5.80;4.25;;;;;;;22.07;53.40;99682.44;5011776;28;20025;-67
2021/08/07 02:06:48;;;;;;;6.43;5.03;;;;;;;21.74;54.13;99686.69;5015556;28;20037;-65
2021/08/07 02:09:17;;;;;;;6.38;4.65;;;;;;;21.72;54.81;99677.97;5030561;28;20448;-68
2021/08/07 02:11:43;;;;;;;8.55;5.00;;;;;;;21.66;54.82;99681.59;5014862;28;20026;-67
2021/08/07 02:14:09;;;;;;;7.07;5.18;;;;;;;21.61;55.22;99686.94;5014868;28;20062;-66
2021/08/07 02:16:38;;;;;;;6.50;4.65;;;;;;;21.61;55.02;99683.47;5015238;28;20557;-67
2021/08/07 02:19:05;;;;;;;6.90;5.10;;;;;;;21.52;55.74;99675.72;5014931;28;20042;-68
2021/08/07 02:21:31;;;;;;;6.82;4.82;;;;;;;21.63;55.60;99684.28;5030255;28;20032;-68
2021/08/07 02:23:56;;;;;;;8.23;4.85;;;;;;;21.63;55.44;99676.41;5015057;28;20034;-66
2021/08/07 02:26:24;;;;;;;6.60;5.15;;;;;;;21.37;55.28;99648.03;5015143;28;20092;-69
2021/08/07 02:28:50;;;;;;;7.07;5.13;;;;;;;21.62;54.99;99685.16;5015154;28;20115;-68
2021/08/07 02:31:17;;;;;;;8.40;5.28;;;;;;;21.43;55.75;99677.66;5014887;28;20022;-65
2021/08/07 02:33:43;;;;;;;7.18;5.03;;;;;;;21.25;55.95;99670.16;5014511;28;20026;-67
2021/08/07 02:36:10;;;;;;;5.80;4.85;;;;;;;20.76;56.91;99680.69;5014475;28;20026;-68
2021/08/07 02:38:36;;;;;;;7.82;4.85;;;;;;;20.55;56.45;99673.13;4996050;28;20042;-71
2021/08/07 02:41:02;;;;;;;6.70;4.38;;;;;;;19.98;58.18;99677.53;5014868;28;20029;-67
2021/08/07 02:43:29;;;;;;;7.32;4.47;;;;;;;19.74;58.76;99666.47;4996089;28;20125;-67
2021/08/07 02:45:55;;;;;;;9.43;4.50;;;;;;;19.76;58.58;99663.81;5014680;28;20073;-67
2021/08/07 02:48:23;;;;;;;8.32;3.85;;;;;;;19.51;58.60;99628.34;5014468;28;20034;-67
2021/08/07 02:50:49;;;;;;;8.18;4.25;;;;;;;19.70;58.49;99656.91;5014488;28;20057;-67
2021/08/07 02:53:16;;;;;;;7.25;4.10;;;;;;;19.91;58.66;99673.25;5014043;28;20064;-67
2021/08/07 02:55:41;;;;;;;5.85;3.80;;;;;;;19.92;57.50;99672.38;5014218;28;20030;-65
2021/08/07 02:58:08;;;;;;;6.07;3.58;;;;;;;19.74;57.39;99671.72;5014204;28;20041;-68
2021/08/07 03:00:35;;;;;;;4.35;3.10;;;;;;;19.71;57.34;99674.34;5013948;28;20022;-68
2021/08/07 03:03:00;;;;;;;4.68;3.22;;;;;;;19.76;56.81;99684.78;5014395;28;20037;-65
2021/08/07 03:05:26;;;;;;;8.05;3.15;;;;;;;19.79;56.87;99685.59;5013997;28;20033;-67
2021/08/07 03:07:52;;;;;;;6.00;2.90;;;;;;;19.70;56.21;99664.75;5014349;28;20083;-68
2021/08/07 03:10:17;;;;;;;5.35;3.40;;;;;;;19.84;56.44;99688.22;5013936;28;20476;-67
2021/08/07 03:12:44;;;;;;;6.35;3.25;;;;;;;19.68;56.93;99680.50;5014013;28;20502;-67
2021/08/07 03:15:11;;;;;;;5.03;3.00;;;;;;;19.45;57.09;99688.66;5013730;28;20045;-68
2021/08/07 03:17:38;;;;;;;5.53;3.17;;;;;;;19.72;57.15;99697.03;5013186;28;20025;-68
2021/08/07 03:20:05;;;;;;;5.43;3.28;;;;;;;19.75;56.43;99673.44;5014067;28;20423;-67
2021/08/07 03:22:30;;;;;;;6.95;3.47;;;;;;;20.03;56.29;99712.38;5014039;28;20160;-65
2021/08/07 03:24:56;;;;;;;10.32;3.17;;;;;;;20.28;55.60;99719.91;5014198;28;20105;-68
2021/08/07 03:27:22;;;;;;;6.10;3.08;;;;;;;19.96;55.97;99727.34;5013741;28;20050;-67
2021/08/07 03:29:47;;;;;;;6.78;3.45;;;;;;;19.45;57.59;99727.94;5012762;28;20057;-67
2021/08/07 03:32:13;;;;;;;7.93;3.40;;;;;;;19.39;57.81;99725.38;5014048;28;20036;-67
2021/08/07 03:34:38;;;;;;;5.75;3.47;;;;;;;19.50;57.21;99738.34;5025158;28;20041;-67
2021/08/07 03:37:04;;;;;;;5.90;3.17;;;;;;;19.74;57.70;99739.81;5033122;28;20411;-65
2021/08/07 03:39:29;;;;;;;10.63;3.78;;;;;;;19.98;56.65;99745.66;5033733;28;20118;-68
2021/08/07 03:41:55;;;;;;;7.25;3.40;;;;;;;19.99;55.54;99757.88;5033352;28;20160;-66
2021/08/07 03:44:20;;;;;;;14.18;4.03;;;;;;;19.88;57.29;99758.00;5033296;28;20079;-69
2021/08/07 03:46:46;;;;;;;13.43;3.30;;;;;;;19.86;56.34;99755.41;5033272;28;20033;-65
2021/08/07 03:49:12;;;;;;;7.05;2.95;;;;;;;19.86;57.51;99767.63;5031092;28;20037;-68
2021/08/07 03:51:37;;;;;;;9.05;3.05;;;;;;;19.83;57.67;99763.28;5033036;28;20025;-68
2021/08/07 03:54:02;;;;;;;6.10;3.25;;;;;;;19.55;56.92;99728.66;5028009;28;20022;-68
2021/08/07 03:56:28;;;;;;;11.43;3.45;;;;;;;19.73;56.99;99753.78;5013288;28;20036;-67
2021/08/07 03:58:53;;;;;;;4.75;2.92;;;;;;;19.60;57.86;99760.03;5012975;28;20566;-67
2021/08/07 04:01:19;;;;;;;15.32;4.82;;;;;;;19.87;56.62;99764.97;5013161;28;20072;-68
2021/08/07 04:03:44;;;;;;;9.02;3.40;;;;;;;20.19;55.75;99782.03;5013108;28;20026;-68
2021/08/07 04:06:10;;;;;;;8.18;3.22;;;;;;;20.37;55.07;99782.66;5012981;28;20026;-68
2021/08/07 04:08:36;;;;;;;5.78;2.75;;;;;;;20.51;54.56;99795.56;5013114;28;20017;-67
2021/08/07 04:11:01;;;;;;;5.43;3.28;;;;;;;20.35;56.28;99803.66;5012914;28;20030;-70
2021/08/07 04:13:27;;;;;;;3.53;2.38;;;;;;;20.13;57.18;99815.31;5012719;28;20018;-67
2021/08/07 04:15:53;;;;;;;4.50;2.28;;;;;;;20.06;56.14;99824.16;5013157;28;20116;-68
2021/08/07 04:18:19;;;;;;;4.55;2.65;;;;;;;20.37;56.70;99819.34;5012669;28;20543;-68
2021/08/07 04:20:44;;;;;;;4.57;2.53;;;;;;;20.59;56.52;99819.91;5010237;28;20492;-68
2021/08/07 04:23:10;;;;;;;13.82;3.53;;;;;;;20.68;56.36;99832.03;5012945;28;20025;-65
2021/08/07 04:25:35;;;;;;;6.32;3.10;;;;;;;20.82;55.27;99840.59;5012554;28;20400;-69
2021/08/07 04:28:01;;;;;;;5.25;2.45;;;;;;;20.90;54.58;99839.59;5012278;28;20480;-68
2021/08/07 04:30:27;;;;;;;4.05;2.35;;;;;;;21.10;54.13;99850.66;5012612;28;20045;-67
2021/08/07 04:32:52;;;;;;;7.28;2.72;;;;;;;21.23;53.34;99847.81;5012874;28;20033;-69
2021/08/07 04:35:18;;;;;;;5.22;2.50;;;;;;;21.36;53.67;99851.09;5012737;28;20416;-67
2021/08/07 04:37:52;;;;;;;7.90;2.85;;;;;;;21.52;53.30;99856.94;4994688;28;20117;-68
2021/08/07 04:40:18;;;;;;;7.10;2.58;;;;;;;21.49;52.86;99871.00;5012377;28;20059;-68
2021/08/07 04:42:44;;;;;;;4.20;2.28;;;;;;;21.33;53.23;99845.03;5012459;28;20030;-70
2021/08/07 04:45:11;;;;;;;6.25;3.42;;;;;;;21.44;53.59;99889.44;5012664;28;20029;-68
2021/08/07 04:47:37;;;;;;;5.18;2.90;;;;;;;21.44;53.73;99894.72;5012601;28;20033;-68
2021/08/07 04:50:03;;;;;;;4.60;2.40;;;;;;;21.48;53.47;99900.78;5012559;28;20511;-68
2021/08/07 04:52:29;;;;;;;8.30;2.80;;;;;;;21.46;53.91;99898.19;5012424;28;20092;-68
2021/08/07 04:54:54;;;;;;;7.07;2.60;;;;;;;21.48;53.84;99913.91;5012287;28;20459;-68
2021/08/07 04:57:19;;;;;;;7.50;2.50;;;;;;;21.55;54.21;99906.81;5012172;28;20025;-65
2021/08/07 04:59:45;;;;;;;7.63;2.53;;;;;;;21.69;53.27;99914.47;5012396;28;20508;-67
2021/08/07 05:02:10;;;;;;;11.38;2.40;;;;;;;21.80;53.32;99913.38;5012092;28;20441;-67
2021/08/07 05:04:36;;;;;;;9.07;2.90;;;;;;;21.94;52.13;99912.25;5012114;28;20034;-68
2021/08/07 05:07:01;;;;;;;10.82;2.78;;;;;;;21.67;52.25;99882.09;5011960;28;20022;-66
2021/08/07 05:09:27;;;;;;;5.65;2.78;;;;;;;21.55;52.98;99910.28;5012010;28;20034;-68
2021/08/07 05:11:52;;;;;;;4.30;3.08;;;;;;;21.49;53.33;99920.91;5013645;28;20503;-68
2021/08/07 05:14:17;;;;;;;4.85;2.55;;;;;;;21.43;53.27;99900.00;5031587;28;20415;-67
2021/08/07 05:16:43;;;;;;;5.40;3.00;;;;;;;21.44;53.43;99920.97;5032051;28;20454;-65
2021/08/07 05:19:08;;;;;;;5.60;3.53;;;;;;;21.43;52.69;99923.63;5014045;28;20219;-68
2021/08/07 05:21:34;;;;;;;5.00;2.78;;;;;;;21.47;52.65;99938.44;5011765;28;20036;-70
2021/08/07 05:23:59;;;;;;;4.00;2.40;;;;;;;21.48;52.56;99933.19;5011738;28;20022;-67
2021/08/07 05:26:25;;;;;;;7.25;2.50;;;;;;;21.55;53.26;99939.19;5011929;28;20548;-67
2021/08/07 05:28:50;;;;;;;6.55;2.83;;;;;;;21.72;52.72;99944.19;5010858;28;20022;-67
2021/08/07 05:31:15;;;;;;;5.18;2.33;;;;;;;21.86;52.84;99946.56;5011952;28;20022;-64
2021/08/07 05:33:41;;;;;;;5.70;2.28;;;;;;;22.11;51.60;99938.22;5012085;28;20084;-68
2021/08/07 05:36:07;;;;;;;5.65;2.47;;;;;;;22.19;51.17;99946.81;5010485;28;20112;-69
2021/08/07 05:38:32;;;;;;;4.47;2.67;;;;;;;22.22;51.63;99951.13;5011664;28;20489;-67
2021/08/07 05:40:57;;;;;;;5.03;2.10;;;;;;;22.36;51.11;99951.75;5015288;28;20492;-68
2021/08/07 05:43:23;;;;;;;7.53;3.15;;;;;;;22.42;51.74;99927.13;5015701;28;20026;-68
2021/08/07 05:45:48;;;;;;;7.45;2.50;;;;;;;22.82;51.15;99956.97;5015041;28;20030;-65
2021/08/07 05:48:14;;;;;;;9.50;2.47;;;;;;;22.71;51.13;99955.44;5015832;28;20033;-66
2021/08/07 05:50:39;;;;;;;4.68;2.47;;;;;;;22.83;51.48;99956.06;5015685;28;20304;-72
2021/08/07 05:53:05;;;;;;;4.20;1.90;;;;;;;22.89;51.29;99955.94;5015559;28;20491;-68
2021/08/07 05:55:30;;;;;;;4.38;2.17;;;;;;;22.97;51.08;99959.28;5015454;28;20484;-65
2021/08/07 05:57:58;;;;;;;5.70;2.60;;;;;;;23.09;50.60;99955.47;5015183;28;20030;-65
2021/08/07 06:00:24;;;;;;;5.18;3.08;;;;;;;23.09;52.12;99964.25;5015518;28;20040;-68
2021/08/07 06:02:49;;;;;;;6.05;3.03;;;;;;;23.19;52.18;99951.78;5015377;28;20030;-68
2021/08/07 06:05:15;;;;;;;7.47;2.60;;;;;;;23.49;53.59;99962.47;5015426;28;20052;-67
2021/08/07 06:07:40;;;;;;;4.88;2.13;;;;;;;23.63;50.93;99961.25;5015539;28;20141;-65
2021/08/07 06:10:06;;;;;;;8.20;2.30;;;;;;;23.78;49.87;99960.88;5015428;28;20022;-68
2021/08/07 06:12:32;;;;;;;8.32;2.67;;;;;;;23.80;48.83;99945.00;5015389;28;20559;-68
2021/08/07 06:14:57;;;;;;;7.53;2.70;;;;;;;24.03;49.90;99955.00;5015377;28;20435;-68
2021/08/07 06:17:23;;;;;;;5.28;1.77;;;;;;;24.19;47.82;99953.66;5015016;28;20478;-67
2021/08/07 06:19:48;;;;;;;7.43;1.98;;;;;;;24.22;47.93;99947.44;5015054;28;20410;-67
2021/08/07 06:22:13;;;;;;;3.58;2.25;;;;;;;24.27;47.51;99958.72;5014908;28;20030;-67
2021/08/07 06:24:39;;;;;;;4.78;2.00;;;;;;;24.28;46.68;99956.97;5015037;28;20384;-68
2021/08/07 06:27:06;;;;;;;4.50;2.17;;;;;;;24.35;48.24;99954.09;5014571;28;20083;-68
2021/08/07 06:29:31;;;;;;;2.45;1.75;;;;;;;24.48;46.66;99961.66;5014771;28;20503;-68
2021/08/07 06:31:57;;;;;;;5.47;1.90;;;;;;;24.57;47.28;99969.31;5025967;28;20025;-67
2021/08/07 06:34:22;;;;;;;4.00;1.85;;;;;;;24.67;46.72;99965.53;4999787;28;20444;-67
2021/08/07 06:36:47;;;;;;;3.60;2.20;;;;;;;24.74;46.94;99962.72;5022241;28;20022;-68
2021/08/07 06:39:13;;;;;;;6.57;2.30;;;;;;;24.84;45.96;99965.00;5014801;28;20044;-67
2021/08/07 06:41:38;;;;;;;4.18;1.95;;;;;;;24.71;46.85;99934.59;5014180;28;20025;-64
2021/08/07 06:44:04;;;;;;;3.40;1.85;;;;;;;24.87;44.25;99935.91;5014474;28;20076;-68
2021/08/07 06:46:29;;;;;;;4.00;1.80;;;;;;;25.16;44.53;99964.91;5014847;28;20052;-65
2021/08/07 06:48:55;;;;;;;6.60;2.22;;;;;;;25.28;46.35;99976.88;5014468;28;20109;-64
2021/08/07 06:51:21;;;;;;;4.85;1.90;;;;;;;25.27;44.21;99973.41;5014619;28;20037;-67
2021/08/07 06:53:46;;;;;;;4.20;2.08;;;;;;;25.28;44.35;99975.09;5013950;28;20026;-67
2021/08/07 06:56:12;;;;;;;5.07;2.10;;;;;;;25.32;45.33;99976.75;5014006;28;20033;-68
2021/08/07 06:58:37;;;;;;;6.20;2.03;;;;;;;25.30;45.03;99968.00;5018088;28;20033;-68
2021/08/07 07:01:03;;;;;;;3.80;1.98;;;;;;;25.40;43.64;99981.81;5022181;28;20061;-67
2021/08/07 07:03:28;;;;;;;4.93;1.98;;;;;;;25.35;43.75;99963.44;5024126;28;20060;-68
2021/08/07 07:05:54;;;;;;;3.70;1.80;;;;;;;25.44;43.45;99966.72;5024580;28;20022;-67
2021/08/07 07:08:19;;;;;;;7.63;1.98;;;;;;;25.52;43.42;99967.31;5023276;28;20030;-66
2021/08/07 07:10:46;;;;;;;5.55;1.77;;;;;;;25.59;43.66;99982.06;5022768;28;20518;-67
2021/08/07 07:13:12;;;;;;;2.55;1.60;;;;;;;25.49;43.13;99988.56;5024754;28;20064;-68
2021/08/07 07:15:38;;;;;;;3.65;1.85;;;;;;;25.58;42.67;99987.41;5022988;28;20042;-67
2021/08/07 07:18:04;;;;;;;4.65;1.98;;;;;;;25.63;43.47;99999.56;5023220;28;20092;-69
2021/08/07 07:20:29;;;;;;;4.97;1.75;;;;;;;25.79;41.95;99994.59;5023283;28;20030;-68
2021/08/07 07:22:55;;;;;;;3.17;1.90;;;;;;;25.97;43.56;100008.13;5023042;28;20014;-67
2021/08/07 07:25:21;;;;;;;3.40;1.80;;;;;;;25.98;42.61;99992.22;5015948;28;20459;-68
2021/08/07 07:27:48;;;;;;;4.22;1.75;;;;;;;26.06;41.29;99991.13;5024537;28;20026;-68
2021/08/07 07:30:13;;;;;;;2.15;1.70;;;;;;;26.11;41.10;99984.75;5012989;28;20029;-70
2021/08/07 07:32:39;;;;;;;2.55;1.60;;;;;;;26.11;42.28;99965.38;5012453;28;20083;-68
2021/08/07 07:35:06;;;;;;;4.30;1.98;;;;;;;26.26;42.07;99999.22;5010477;28;20025;-68
2021/08/07 07:37:33;;;;;;;7.13;1.70;;;;;;;26.19;41.86;99992.41;5010663;28;20050;-68
2021/08/07 07:39:59;;;;;;;5.43;1.80;;;;;;;26.08;40.93;100002.50;5011944;28;20014;-68
2021/08/07 07:42:25;;;;;;;2.58;1.83;;;;;;;26.21;43.55;100006.44;5011547;28;20393;-66
2021/08/07 07:44:51;;;;;;;2.42;1.70;;;;;;;26.31;41.43;99999.91;5012549;28;20106;-68
2021/08/07 07:47:17;;;;;;;3.65;1.60;;;;;;;26.43;42.39;100008.31;5011145;28;20037;-68
2021/08/07 07:49:43;;;;;;;5.55;1.83;;;;;;;26.27;41.84;99992.13;4992772;28;20041;-67
2021/08/07 07:52:08;;;;;;;4.30;1.85;;;;;;;26.41;41.78;100005.72;5011343;28;20048;-68
2021/08/07 07:54:35;;;;;;;6.45;2.13;;;;;;;26.57;41.12;99997.25;5010196;28;20530;-68
2021/08/07 07:57:03;;;;;;;3.97;1.70;;;;;;;26.72;42.62;99993.16;5011342;28;20551;-67
2021/08/07 07:59:28;;;;;;;2.38;1.67;;;;;;;27.08;40.52;99990.91;4977219;28;20508;-68
2021/08/07 08:01:55;;;;;;;4.15;1.75;;;;;;;27.31;39.30;99993.56;5009370;28;20080;-68
2021/08/07 08:04:21;;;;;;;5.22;1.70;;;;;;;27.36;40.68;99996.88;5011820;28;20084;-66
2021/08/07 08:06:47;;;;;;;7.38;1.70;;;;;;;27.42;39.61;99994.00;5010294;28;20022;-67
2021/08/07 08:09:12;;;;;;;5.70;1.60;;;;;;;27.44;39.87;100013.34;5004163;28;20036;-68
2021/08/07 08:11:37;;;;;;;3.58;1.80;;;;;;;26.79;38.97;99989.38;5003703;28;20464;-68
2021/08/07 08:14:03;;;;;;;4.00;1.67;;;;;;;26.68;38.63;100007.41;4999171;28;20564;-68
2021/08/07 08:16:29;;;;;;;6.65;1.58;;;;;;;26.72;41.30;99988.72;5000241;28;20042;-68
2021/08/07 08:18:54;;;;;;;5.13;2.15;;;;;;;27.08;39.48;99998.00;5008598;28;20045;-70
2021/08/07 08:21:20;;;;;;;6.28;1.63;;;;;;;27.33;38.99;100000.53;5010992;28;20087;-67
2021/08/07 08:23:47;;;;;;;4.80;1.65;;;;;;;27.65;39.01;99998.34;4995884;28;20018;-69
2021/08/07 08:26:13;;;;;;;4.35;1.70;;;;;;;27.64;39.08;99999.31;4994736;28;20028;-67
2021/08/07 08:28:41;;;;;;;5.10;1.70;;;;;;;27.69;37.33;99985.81;4972761;28;20065;-68
2021/08/07 08:31:07;;;;;;;3.55;1.50;;;;;;;27.81;36.59;99995.06;4999735;28;20030;-68
2021/08/07 08:33:33;;;;;;;4.35;1.85;;;;;;;27.64;36.54;99978.09;4999282;28;20030;-66
2021/08/07 08:35:58;;;;;;;3.75;1.80;;;;;;;27.67;37.44;99977.09;5005780;28;20076;-71
2021/08/07 08:38:24;;;;;;;5.07;1.60;;;;;;;27.81;36.45;99980.00;5011113;28;20030;-70
2021/08/07 08:40:49;;;;;;;4.20;1.67;;;;;;;28.00;37.72;99976.56;5010614;28;20499;-71
2021/08/07 08:43:16;;;;;;;4.35;2.00;;;;;;;27.98;36.03;99976.63;5011362;28;20489;-68
2021/08/07 08:45:45;;;;;;;6.32;2.00;;;;;;;28.11;38.54;99971.69;5011246;28;20053;-70
2021/08/07 08:48:13;;;;;;;4.60;1.75;;;;;;;28.18;36.10;99975.78;4975334;28;20046;-71
2021/08/07 08:50:39;;;;;;;4.43;1.67;;;;;;;28.32;37.42;99971.66;5009738;28;20109;-70
2021/08/07 08:53:07;;;;;;;6.35;2.28;;;;;;;28.25;35.36;99945.41;5008149;28;20026;-70
2021/08/07 08:55:32;;;;;;;5.72;1.63;;;;;;;28.21;33.29;99972.13;5011159;28;20017;-70
2021/08/07 08:57:58;;;;;;;3.95;1.63;;;;;;;28.23;33.51;99979.09;5011337;28;20032;-69
2021/08/07 09:00:23;;;;;;;2.08;1.75;;;;;;;27.89;33.20;99937.25;5011381;28;20029;-70
2021/08/07 09:02:49;;;;;;;6.15;1.50;;;;;;;28.34;36.25;99973.31;5010920;28;20456;-70
2021/08/07 09:05:15;;;;;;;6.85;1.48;;;;;;;28.29;33.21;99929.31;5009013;28;20041;-70
2021/08/07 09:07:44;;;;;;;4.85;1.60;;;;;;;28.45;34.91;99962.22;4974222;28;20046;-70
2021/08/07 09:10:09;;;;;;;2.72;1.40;;;;;;;28.65;32.75;99971.03;5009720;28;20022;-70
2021/08/07 09:12:55;;;;;;;3.15;1.70;;;;;;;28.71;31.95;99961.03;5010273;28;20037;-70
2021/08/07 09:15:39;;;;;;;5.72;1.70;;;;;;;28.94;31.56;99958.25;5009545;28;20403;-70
2021/08/07 09:18:10;;;;;;;3.50;1.63;;;;;;;29.04;32.48;99956.84;5010828;28;20037;-69
2021/08/07 09:20:38;;;;;;;2.22;1.60;;;;;;;29.01;31.87;99939.25;5011401;28;20034;-69
2021/08/07 09:23:04;;;;;;;2.63;1.55;;;;;;;29.16;31.11;99958.91;5004147;28;20022;-70
2021/08/07 09:25:41;;;;;;;2.08;1.55;;;;;;;29.12;31.38;99959.97;5009437;28;20032;-69
2021/08/07 09:28:08;;;;;;;3.63;1.90;;;;;;;29.40;31.83;99963.13;5010032;28;20029;-70
2021/08/07 09:30:37;;;;;;;4.00;1.40;;;;;;;29.43;29.47;99957.66;5011682;28;20033;-70
2021/08/07 09:33:10;;;;;;;1.38;1.20;;;;;;;29.51;29.83;99963.47;5019527;28;20037;-67
2021/08/07 09:35:47;;;;;;;2.40;1.70;;;;;;;29.37;31.03;99945.50;4999274;28;20102;-67
2021/08/07 09:38:23;;;;;;;5.03;1.67;;;;;;;29.60;29.03;99960.31;5010772;28;20057;-67
2021/08/07 09:41:01;;;;;;;4.18;1.70;;;;;;;29.76;31.50;99965.72;5009639;28;20026;-69
2021/08/07 09:43:32;;;;;;;3.13;1.48;;;;;;;30.01;31.09;99968.00;5010870;28;20045;-70
2021/08/07 09:46:08;;;;;;;3.58;1.40;;;;;;;29.95;28.78;99959.50;5010533;28;20014;-67
2021/08/07 09:48:37;;;;;;;5.18;2.10;;;;;;;29.89;28.41;99957.13;4997958;28;20118;-67
2021/08/07 09:51:21;;;;;;;3.28;1.50;;;;;;;30.04;27.86;99935.03;5003300;28;20022;-67
2021/08/07 09:54:15;;;;;;;1.40;1.20;;;;;;;30.38;27.73;99953.69;4998100;28;20084;-69
2021/08/07 09:56:53;;;;;;;3.03;1.70;;;;;;;30.41;28.43;99957.03;5009550;28;20058;-69
2021/08/07 09:59:21;;;;;;;2.63;1.40;;;;;;;30.07;27.58;99950.88;5003408;28;20115;-69
2021/08/07 10:01:48;;;;;;;2.65;1.80;;;;;;;30.16;27.66;99958.34;4999914;28;20105;-69
2021/08/07 10:04:16;;;;;;;3.40;1.50;;;;;;;30.26;28.57;99964.06;5002114;28;20523;-69
2021/08/07 10:06:44;;;;;;;9.18;1.63;;;;;;;29.83;26.77;99963.59;5007588;28;20048;-69
2021/08/07 10:09:11;;;;;;;7.20;1.85;;;;;;;29.97;27.64;99965.56;5009729;28;20026;-67
2021/08/07 10:11:38;;;;;;;1.88;1.58;;;;;;;30.05;28.90;99947.41;5010012;28;20026;-69
2021/08/07 10:14:04;;;;;;;3.75;1.70;;;;;;;30.28;28.34;99948.00;4990780;28;20034;-70
2021/08/07 10:16:32;;;;;;;1.63;1.30;;;;;;;30.42;28.64;99933.91;5009802;28;20042;-69
2021/08/07 10:19:02;;;;;;;4.32;1.40;;;;;;;30.84;28.61;99974.31;5009185;28;20049;-69
2021/08/07 10:21:30;;;;;;;2.42;1.42;;;;;;;30.71;28.35;99959.00;4999626;28;20032;-69
2021/08/07 10:23:56;;;;;;;3.28;1.45;;;;;;;30.82;27.01;99977.06;5008463;28;20037;-69
2021/08/07 10:26:26;;;;;;;2.28;1.20;;;;;;;31.26;25.33;99959.53;5015625;28;20038;-67
2021/08/07 10:29:04;;;;;;;2.85;1.27;;;;;;;31.50;26.47;99965.22;5015588;28;20088;-67
2021/08/07 10:31:33;;;;;;;1.93;1.20;;;;;;;31.41;25.42;99966.63;4997419;28;20041;-68
2021/08/07 10:34:04;;;;;;;4.70;1.63;;;;;;;30.90;26.12;99956.16;5011703;28;20456;-67
2021/08/07 10:36:31;;;;;;;2.45;1.25;;;;;;;31.00;26.10;99966.31;5013245;28;20045;-68
2021/08/07 10:38:57;;;;;;;4.75;1.35;;;;;;;31.03;25.78;99964.34;5011324;28;20411;-68
2021/08/07 10:41:29;;;;;;;2.70;1.35;;;;;;;31.19;25.51;99964.38;5011152;28;20424;-68
2021/08/07 10:43:56;;;;;;;3.95;1.42;;;;;;;31.10;25.85;99962.22;5011064;28;20408;-68
2021/08/07 10:46:22;;;;;;;1.83;1.40;;;;;;;31.53;25.29;99950.84;5013502;28;20038;-69
2021/08/07 10:48:50;;;;;;;2.72;1.80;;;;;;;31.51;26.96;99910.91;5011075;28;20113;-66
2021/08/07 10:51:24;;;;;;;2.47;1.88;;;;;;;32.03;24.68;99954.16;5008208;28;20143;-68
2021/08/07 10:53:49;;;;;;;2.40;1.30;;;;;;;32.31;24.97;99945.28;5007862;28;20100;-67
2021/08/07 10:56:33;;;;;;;1.52;1.38;;;;;;;32.46;25.58;99951.50;5008221;28;20042;-67
2021/08/07 10:59:19;;;;;;;1.20;1.10;;;;;;;32.64;23.78;99954.81;5006389;28;20034;-66
2021/08/07 11:01:50;;;;;;;3.55;1.60;;;;;;;32.41;23.89;99924.22;5002600;28;20049;-67
2021/08/07 11:04:18;;;;;;;3.53;1.42;;;;;;;32.03;26.69;99952.31;4997224;28;20034;-71
2021/08/07 11:06:52;;;;;;;4.15;1.60;;;;;;;32.15;25.35;99953.41;4989398;28;20031;-68
2021/08/07 11:09:20;;;;;;;2.58;1.45;;;;;;;31.99;25.50;99948.13;4956300;28;20093;-69
2021/08/07 11:11:48;;;;;;;5.97;1.40;;;;;;;32.20;27.37;99953.13;5004265;28;20061;-67
2021/08/07 11:14:26;;;;;;;5.22;1.40;;;;;;;32.30;25.44;99945.41;5003137;28;20036;-68
2021/08/07 11:17:06;;;;;;;3.33;1.20;;;;;;;32.77;23.91;99933.53;5006052;28;20058;-69
2021/08/07 11:20:00;;;;;;;1.48;1.27;;;;;;;33.02;26.70;99935.47;5002113;28;20538;-69
2021/08/07 11:22:31;;;;;;;1.42;1.30;;;;;;;33.44;24.00;99948.78;5008953;28;20042;-70
2021/08/07 11:25:24;;;;;;;3.13;1.25;;;;;;;33.39;25.08;99938.38;5011035;28;20029;-69
2021/08/07 11:27:55;;;;;;;4.53;1.35;;;;;;;33.22;26.66;99944.84;4950591;28;20532;-69
2021/08/07 11:30:22;;;;;;;4.18;1.50;;;;;;;32.34;25.35;99946.91;4950892;28;20049;-69
2021/08/07 11:33:01;;;;;;;1.95;1.40;;;;;;;32.22;23.92;99935.19;4950566;28;20067;-69
2021/08/07 11:35:39;;;;;;;4.38;1.80;;;;;;;32.82;26.51;99936.75;4950998;28;20505;-69